sensor_id;sensor_type;location;lat;lon;timestamp;pressure;altitude;pressure_sealevel;temperature;humidity
66273;BME280;58450;52.150;4.466;2022-10-16T00:01:35;100833.09;;;14.44;100.00
66273;BME280;58450;52.150;4.466;2022-10-16T00:04:03;100842.88;;;14.45;100.00
66273;BME280;58450;52.150;4.466;2022-10-16T00:06:32;100835.38;;;14.47;100.00
66273;BME280;58450;52.150;4.466;2022-10-16T00:09:00;100834.97;;;14.43;100.00
66273;BME280;58450;52.150;4.466;2022-10-16T00:11:29;100854.97;;;14.42;100.00
66273;BME280;58450;52.150;4.466;2022-10-16T00:14:00;100841.81;;;14.46;100.00
66273;BME280;58450;52.150;4.466;2022-10-16T00:16:30;100828.09;;;14.47;100.00
66273;BME280;58450;52.150;4.466;2022-10-16T00:18:58;100837.69;;;14.43;100.00
66273;BME280;58450;52.150;4.466;2022-10-16T00:21:27;100841.19;;;14.44;100.00
66273;BME280;58450;52.150;4.466;2022-10-16T00:23:59;100829.38;;;14.38;100.00
66273;BME280;58450;52.150;4.466;2022-10-16T00:26:29;100828.50;;;14.38;100.00
66273;BME280;58450;52.150;4.466;2022-10-16T00:28:58;100849.34;;;14.37;100.00
66273;BME280;58450;52.150;4.466;2022-10-16T00:31:26;100822.25;;;14.44;100.00
66273;BME280;58450;52.150;4.466;2022-10-16T00:33:54;100807.91;;;14.37;100.00
66273;BME280;58450;52.150;4.466;2022-10-16T00:36:23;100821.66;;;14.35;100.00
66273;BME280;58450;52.150;4.466;2022-10-16T00:38:54;100813.34;;;14.30;100.00
66273;BME280;58450;52.150;4.466;2022-10-16T00:41:27;100806.47;;;14.27;100.00
66273;BME280;58450;52.150;4.466;2022-10-16T00:43:56;100818.75;;;14.23;100.00
66273;BME280;58450;52.150;4.466;2022-10-16T00:46:26;100820.66;;;14.23;100.00
66273;BME280;58450;52.150;4.466;2022-10-16T00:48:59;100820.66;;;14.23;100.00
66273;BME280;58450;52.150;4.466;2022-10-16T00:51:32;100827.31;;;14.20;100.00
66273;BME280;58450;52.150;4.466;2022-10-16T00:54:04;100816.28;;;14.15;100.00
66273;BME280;58450;52.150;4.466;2022-10-16T00:56:37;100822.97;;;14.12;100.00
66273;BME280;58450;52.150;4.466;2022-10-16T00:59:11;100839.84;;;14.08;100.00
66273;BME280;58450;52.150;4.466;2022-10-16T01:01:42;100836.50;;;14.12;100.00
66273;BME280;58450;52.150;4.466;2022-10-16T01:04:10;100835.25;;;14.08;100.00
66273;BME280;58450;52.150;4.466;2022-10-16T01:06:44;100836.72;;;14.04;100.00
66273;BME280;58450;52.150;4.466;2022-10-16T01:09:23;100849.00;;;14.00;100.00
66273;BME280;58450;52.150;4.466;2022-10-16T01:12:06;100850.66;;;14.01;100.00
66273;BME280;58450;52.150;4.466;2022-10-16T01:14:45;100846.91;;;14.02;100.00
66273;BME280;58450;52.150;4.466;2022-10-16T01:17:18;100841.09;;;13.98;100.00
66273;BME280;58450;52.150;4.466;2022-10-16T01:20:02;100830.69;;;13.95;100.00
66273;BME280;58450;52.150;4.466;2022-10-16T01:22:43;100842.75;;;13.93;100.00
66273;BME280;58450;52.150;4.466;2022-10-16T01:25:30;100832.78;;;13.86;100.00
66273;BME280;58450;52.150;4.466;2022-10-16T01:28:11;100841.31;;;13.83;100.00
66273;BME280;58450;52.150;4.466;2022-10-16T01:30:42;100843.59;;;13.80;100.00
66273;BME280;58450;52.150;4.466;2022-10-16T01:33:16;100829.66;;;13.76;100.00
66273;BME280;58450;52.150;4.466;2022-10-16T01:35:49;100839.84;;;13.74;100.00
66273;BME280;58450;52.150;4.466;2022-10-16T01:38:26;100834.66;;;13.72;100.00
66273;BME280;58450;52.150;4.466;2022-10-16T01:41:01;100844.00;;;13.70;100.00
66273;BME280;58450;52.150;4.466;2022-10-16T01:43:38;100839.03;;;13.67;100.00
66273;BME280;58450;52.150;4.466;2022-10-16T01:46:10;100848.19;;;13.66;100.00
66273;BME280;58450;52.150;4.466;2022-10-16T01:48:40;100851.50;;;13.61;100.00
66273;BME280;58450;52.150;4.466;2022-10-16T01:51:10;100849.84;;;13.60;100.00
66273;BME280;58450;52.150;4.466;2022-10-16T01:53:42;100833.44;;;13.62;100.00
66273;BME280;58450;52.150;4.466;2022-10-16T01:56:15;100850.88;;;13.59;100.00
66273;BME280;58450;52.150;4.466;2022-10-16T01:58:50;100858.38;;;13.57;100.00
66273;BME280;58450;52.150;4.466;2022-10-16T02:01:23;100851.09;;;13.57;100.00
66273;BME280;58450;52.150;4.466;2022-10-16T02:03:58;100865.03;;;13.54;100.00
66273;BME280;58450;52.150;4.466;2022-10-16T02:06:32;100865.22;;;13.53;100.00
66273;BME280;58450;52.150;4.466;2022-10-16T02:09:00;100873.97;;;13.48;100.00
66273;BME280;58450;52.150;4.466;2022-10-16T02:11:28;100884.56;;;13.50;100.00
66273;BME280;58450;52.150;4.466;2022-10-16T02:14:00;100865.00;;;13.48;100.00
66273;BME280;58450;52.150;4.466;2022-10-16T02:16:34;100876.84;;;13.47;100.00
66273;BME280;58450;52.150;4.466;2022-10-16T02:19:05;100862.31;;;13.48;100.00
66273;BME280;58450;52.150;4.466;2022-10-16T02:21:39;100868.13;;;13.44;100.00
66273;BME280;58450;52.150;4.466;2022-10-16T02:24:17;100868.97;;;13.45;100.00
66273;BME280;58450;52.150;4.466;2022-10-16T02:26:57;100864.34;;;13.39;100.00
66273;BME280;58450;52.150;4.466;2022-10-16T02:29:32;100865.16;;;13.39;100.00
66273;BME280;58450;52.150;4.466;2022-10-16T02:32:07;100872.25;;;13.40;100.00
66273;BME280;58450;52.150;4.466;2022-10-16T02:34:39;100887.41;;;13.35;100.00
66273;BME280;58450;52.150;4.466;2022-10-16T02:37:08;100878.88;;;13.31;100.00
66273;BME280;58450;52.150;4.466;2022-10-16T02:39:36;100882.63;;;13.30;100.00
66273;BME280;58450;52.150;4.466;2022-10-16T02:42:09;100882.00;;;13.35;100.00
66273;BME280;58450;52.150;4.466;2022-10-16T02:44:38;100895.09;;;13.31;100.00
66273;BME280;58450;52.150;4.466;2022-10-16T02:47:06;100888.66;;;13.32;100.00
66273;BME280;58450;52.150;4.466;2022-10-16T02:49:33;100898.81;;;13.30;100.00
66273;BME280;58450;52.150;4.466;2022-10-16T02:52:01;100900.94;;;13.35;100.00
66273;BME280;58450;52.150;4.466;2022-10-16T02:54:29;100903.63;;;13.35;100.00
66273;BME280;58450;52.150;4.466;2022-10-16T02:56:56;100905.72;;;13.33;100.00
66273;BME280;58450;52.150;4.466;2022-10-16T02:59:23;100900.31;;;13.33;100.00
66273;BME280;58450;52.150;4.466;2022-10-16T03:01:52;100891.16;;;13.34;100.00
66273;BME280;58450;52.150;4.466;2022-10-16T03:04:19;100875.34;;;13.37;100.00
66273;BME280;58450;52.150;4.466;2022-10-16T03:06:47;100880.53;;;13.32;100.00
66273;BME280;58450;52.150;4.466;2022-10-16T03:09:14;100892.81;;;13.35;100.00
66273;BME280;58450;52.150;4.466;2022-10-16T03:11:42;100887.59;;;13.33;100.00
66273;BME280;58450;52.150;4.466;2022-10-16T03:14:09;100895.09;;;13.31;100.00
66273;BME280;58450;52.150;4.466;2022-10-16T03:16:37;100895.94;;;13.32;100.00
66273;BME280;58450;52.150;4.466;2022-10-16T03:19:05;100884.72;;;13.35;100.00
66273;BME280;58450;52.150;4.466;2022-10-16T03:21:34;100891.75;;;13.29;100.00
66273;BME280;58450;52.150;4.466;2022-10-16T03:24:01;100894.69;;;13.27;100.00
66273;BME280;58450;52.150;4.466;2022-10-16T03:26:28;100903.41;;;13.29;100.00
66273;BME280;58450;52.150;4.466;2022-10-16T03:28:56;100899.69;;;13.30;100.00
66273;BME280;58450;52.150;4.466;2022-10-16T03:31:23;100904.22;;;13.30;100.00
66273;BME280;58450;52.150;4.466;2022-10-16T03:33:51;100917.34;;;13.33;100.00
66273;BME280;58450;52.150;4.466;2022-10-16T03:36:19;100918.81;;;13.36;100.00
66273;BME280;58450;52.150;4.466;2022-10-16T03:38:47;100914.03;;;13.38;100.00
66273;BME280;58450;52.150;4.466;2022-10-16T03:41:14;100916.75;;;13.38;100.00
66273;BME280;58450;52.150;4.466;2022-10-16T03:43:42;100917.19;;;13.41;100.00
66273;BME280;58450;52.150;4.466;2022-10-16T03:46:09;100915.34;;;13.42;100.00
66273;BME280;58450;52.150;4.466;2022-10-16T03:48:36;100919.03;;;13.41;100.00
66273;BME280;58450;52.150;4.466;2022-10-16T03:51:05;100927.34;;;13.39;100.00
66273;BME280;58450;52.150;4.466;2022-10-16T03:53:34;100928.84;;;13.42;100.00
66273;BME280;58450;52.150;4.466;2022-10-16T03:56:02;100925.13;;;13.43;100.00
66273;BME280;58450;52.150;4.466;2022-10-16T03:58:29;100926.78;;;13.44;100.00
66273;BME280;58450;52.150;4.466;2022-10-16T04:00:56;100941.97;;;13.45;100.00
66273;BME280;58450;52.150;4.466;2022-10-16T04:03:24;100942.59;;;13.47;100.00
66273;BME280;58450;52.150;4.466;2022-10-16T04:05:51;100940.94;;;13.46;100.00
66273;BME280;58450;52.150;4.466;2022-10-16T04:08:19;100950.06;;;13.45;100.00
66273;BME280;58450;52.150;4.466;2022-10-16T04:10:48;100947.16;;;13.47;100.00
66273;BME280;58450;52.150;4.466;2022-10-16T04:13:15;100953.81;;;13.44;100.00
66273;BME280;58450;52.150;4.466;2022-10-16T04:15:44;100957.56;;;13.43;100.00
66273;BME280;58450;52.150;4.466;2022-10-16T04:18:12;100948.59;;;13.42;100.00
66273;BME280;58450;52.150;4.466;2022-10-16T04:20:40;100951.94;;;13.44;100.00
66273;BME280;58450;52.150;4.466;2022-10-16T04:23:08;100955.22;;;13.40;100.00
66273;BME280;58450;52.150;4.466;2022-10-16T04:25:35;100958.31;;;13.37;100.00
66273;BME280;58450;52.150;4.466;2022-10-16T04:28:04;100966.84;;;13.40;100.00
66273;BME280;58450;52.150;4.466;2022-10-16T04:30:31;100980.78;;;13.37;100.00
66273;BME280;58450;52.150;4.466;2022-10-16T04:32:59;100976.22;;;13.38;100.00
66273;BME280;58450;52.150;4.466;2022-10-16T04:35:27;100982.66;;;13.37;100.00
66273;BME280;58450;52.150;4.466;2022-10-16T04:37:54;100995.94;;;13.32;100.00
66273;BME280;58450;52.150;4.466;2022-10-16T04:40:24;100995.31;;;13.29;100.00
66273;BME280;58450;52.150;4.466;2022-10-16T04:42:51;101000.50;;;13.31;100.00
66273;BME280;58450;52.150;4.466;2022-10-16T04:45:20;101003.59;;;13.28;100.00
66273;BME280;58450;52.150;4.466;2022-10-16T04:47:47;101008.59;;;13.24;100.00
66273;BME280;58450;52.150;4.466;2022-10-16T04:50:15;101006.50;;;13.20;100.00
66273;BME280;58450;52.150;4.466;2022-10-16T04:52:42;101015.66;;;13.25;100.00
66273;BME280;58450;52.150;4.466;2022-10-16T04:55:10;101017.31;;;13.20;100.00
66273;BME280;58450;52.150;4.466;2022-10-16T04:57:37;101009.38;;;13.18;100.00
66273;BME280;58450;52.150;4.466;2022-10-16T05:00:05;101034.91;;;13.09;100.00
66273;BME280;58450;52.150;4.466;2022-10-16T05:02:35;101020.97;;;13.05;100.00
66273;BME280;58450;52.150;4.466;2022-10-16T05:05:03;101030.28;;;13.03;100.00
66273;BME280;58450;52.150;4.466;2022-10-16T05:07:31;101027.81;;;13.01;100.00
66273;BME280;58450;52.150;4.466;2022-10-16T05:09:58;101016.53;;;12.97;100.00
66273;BME280;58450;52.150;4.466;2022-10-16T05:12:26;101031.94;;;12.97;100.00
66273;BME280;58450;52.150;4.466;2022-10-16T05:14:53;101048.53;;;12.94;100.00
66273;BME280;58450;52.150;4.466;2022-10-16T05:17:24;101052.84;;;12.88;100.00
66273;BME280;58450;52.150;4.466;2022-10-16T05:19:53;101048.69;;;12.85;100.00
66273;BME280;58450;52.150;4.466;2022-10-16T05:22:20;101047.41;;;12.81;100.00
66273;BME280;58450;52.150;4.466;2022-10-16T05:24:48;101055.72;;;12.80;100.00
66273;BME280;58450;52.150;4.466;2022-10-16T05:27:15;101073.09;;;12.70;100.00
66273;BME280;58450;52.150;4.466;2022-10-16T05:29:45;101079.06;;;12.66;100.00
66273;BME280;58450;52.150;4.466;2022-10-16T05:32:15;101075.16;;;12.68;100.00
66273;BME280;58450;52.150;4.466;2022-10-16T05:34:43;101070.97;;;12.66;100.00
66273;BME280;58450;52.150;4.466;2022-10-16T05:37:12;101077.16;;;12.60;100.00
66273;BME280;58450;52.150;4.466;2022-10-16T05:39:40;101086.28;;;12.59;100.00
66273;BME280;58450;52.150;4.466;2022-10-16T05:42:07;101094.59;;;12.57;100.00
66273;BME280;58450;52.150;4.466;2022-10-16T05:44:35;101081.47;;;12.54;100.00
66273;BME280;58450;52.150;4.466;2022-10-16T05:47:02;101101.03;;;12.56;100.00
66273;BME280;58450;52.150;4.466;2022-10-16T05:49:30;101094.91;;;12.47;100.00
66273;BME280;58450;52.150;4.466;2022-10-16T05:51:57;101076.47;;;12.51;100.00
66273;BME280;58450;52.150;4.466;2022-10-16T05:54:26;101079.16;;;12.51;100.00
66273;BME280;58450;52.150;4.466;2022-10-16T05:56:53;101075.38;;;12.45;100.00
66273;BME280;58450;52.150;4.466;2022-10-16T05:59:20;101068.50;;;12.43;100.00
66273;BME280;58450;52.150;4.466;2022-10-16T06:01:48;101083.84;;;12.42;100.00
66273;BME280;58450;52.150;4.466;2022-10-16T06:04:15;101071.84;;;12.45;100.00
66273;BME280;58450;52.150;4.466;2022-10-16T06:06:43;101085.72;;;12.41;100.00
66273;BME280;58450;52.150;4.466;2022-10-16T06:09:10;101097.34;;;12.42;100.00
66273;BME280;58450;52.150;4.466;2022-10-16T06:11:39;101083.84;;;12.42;100.00
66273;BME280;58450;52.150;4.466;2022-10-16T06:14:08;101096.13;;;12.45;100.00
66273;BME280;58450;52.150;4.466;2022-10-16T06:16:37;101103.38;;;12.44;100.00
66273;BME280;58450;52.150;4.466;2022-10-16T06:19:05;101102.34;;;12.45;100.00
66273;BME280;58450;52.150;4.466;2022-10-16T06:21:34;101105.06;;;12.45;100.00
66273;BME280;58450;52.150;4.466;2022-10-16T06:24:01;101109.03;;;12.49;100.00
66273;BME280;58450;52.150;4.466;2022-10-16T06:26:30;101102.81;;;12.49;100.00
66273;BME280;58450;52.150;4.466;2022-10-16T06:29:00;101122.34;;;12.51;100.00
66273;BME280;58450;52.150;4.466;2022-10-16T06:31:29;101117.59;;;12.53;100.00
66273;BME280;58450;52.150;4.466;2022-10-16T06:33:59;101124.47;;;12.55;100.00
66273;BME280;58450;52.150;4.466;2022-10-16T06:36:27;101123.25;;;12.58;100.00
66273;BME280;58450;52.150;4.466;2022-10-16T06:38:56;101117.47;;;12.61;100.00
66273;BME280;58450;52.150;4.466;2022-10-16T06:41:23;101118.13;;;12.63;100.00
66273;BME280;58450;52.150;4.466;2022-10-16T06:43:51;101130.84;;;12.69;100.00
66273;BME280;58450;52.150;4.466;2022-10-16T06:46:22;101129.16;;;12.68;100.00
66273;BME280;58450;52.150;4.466;2022-10-16T06:48:51;101135.00;;;12.72;100.00
66273;BME280;58450;52.150;4.466;2022-10-16T06:51:21;101141.50;;;12.78;100.00
66273;BME280;58450;52.150;4.466;2022-10-16T06:53:50;101142.75;;;12.82;100.00
66273;BME280;58450;52.150;4.466;2022-10-16T06:56:20;101146.69;;;12.79;100.00
66273;BME280;58450;52.150;4.466;2022-10-16T06:58:50;101153.38;;;12.83;100.00
66273;BME280;58450;52.150;4.466;2022-10-16T07:01:21;101156.47;;;12.80;100.00
66273;BME280;58450;52.150;4.466;2022-10-16T07:03:49;101166.63;;;12.78;100.00
66273;BME280;58450;52.150;4.466;2022-10-16T07:06:21;101152.53;;;12.83;100.00
66273;BME280;58450;52.150;4.466;2022-10-16T07:08:51;101178.72;;;12.82;100.00
66273;BME280;58450;52.150;4.466;2022-10-16T07:11:21;101178.13;;;12.87;100.00
66273;BME280;58450;52.150;4.466;2022-10-16T07:13:51;101197.88;;;12.88;100.00
66273;BME280;58450;52.150;4.466;2022-10-16T07:16:22;101193.78;;;12.92;100.00
66273;BME280;58450;52.150;4.466;2022-10-16T07:18:50;101201.75;;;13.00;100.00
66273;BME280;58450;52.150;4.466;2022-10-16T07:21:24;101205.00;;;13.17;100.00
66273;BME280;58450;52.150;4.466;2022-10-16T07:23:54;101221.88;;;13.26;100.00
66273;BME280;58450;52.150;4.466;2022-10-16T07:26:24;101212.59;;;13.35;100.00
66273;BME280;58450;52.150;4.466;2022-10-16T07:28:52;101216.97;;;13.58;100.00
66273;BME280;58450;52.150;4.466;2022-10-16T07:31:22;101227.56;;;13.88;100.00
66273;BME280;58450;52.150;4.466;2022-10-16T07:33:50;101240.69;;;13.98;100.00
66273;BME280;58450;52.150;4.466;2022-10-16T07:36:19;101244.84;;;13.94;100.00
66273;BME280;58450;52.150;4.466;2022-10-16T07:38:47;101244.56;;;13.82;100.00
66273;BME280;58450;52.150;4.466;2022-10-16T07:41:16;101259.66;;;13.98;100.00
66273;BME280;58450;52.150;4.466;2022-10-16T07:43:46;101244.59;;;14.24;100.00
66273;BME280;58450;52.150;4.466;2022-10-16T07:46:14;101250.19;;;14.71;100.00
66273;BME280;58450;52.150;4.466;2022-10-16T07:48:44;101258.56;;;14.89;100.00
66273;BME280;58450;52.150;4.466;2022-10-16T07:51:15;101251.50;;;15.35;100.00
66273;BME280;58450;52.150;4.466;2022-10-16T07:53:44;101252.34;;;15.43;100.00
66273;BME280;58450;52.150;4.466;2022-10-16T07:56:12;101262.72;;;15.73;100.00
66273;BME280;58450;52.150;4.466;2022-10-16T07:58:40;101272.09;;;15.77;100.00
66273;BME280;58450;52.150;4.466;2022-10-16T08:01:09;101278.19;;;15.72;100.00
66273;BME280;58450;52.150;4.466;2022-10-16T08:03:41;101273.75;;;15.98;100.00
66273;BME280;58450;52.150;4.466;2022-10-16T08:06:11;101295.50;;;15.85;100.00
66273;BME280;58450;52.150;4.466;2022-10-16T08:08:38;101285.03;;;16.02;100.00
66273;BME280;58450;52.150;4.466;2022-10-16T08:11:06;101285.50;;;15.51;100.00
66273;BME280;58450;52.150;4.466;2022-10-16T08:13:34;101302.00;;;15.36;100.00
66273;BME280;58450;52.150;4.466;2022-10-16T08:16:02;101305.09;;;15.60;100.00
66273;BME280;58450;52.150;4.466;2022-10-16T08:18:33;101297.97;;;16.13;100.00
66273;BME280;58450;52.150;4.466;2022-10-16T08:21:03;101303.44;;;15.59;100.00
66273;BME280;58450;52.150;4.466;2022-10-16T08:23:33;101311.56;;;15.46;100.00
66273;BME280;58450;52.150;4.466;2022-10-16T08:26:03;101309.88;;;16.05;100.00
66273;BME280;58450;52.150;4.466;2022-10-16T08:28:33;101312.13;;;16.29;100.00
66273;BME280;58450;52.150;4.466;2022-10-16T08:31:07;101308.84;;;15.73;100.00
66273;BME280;58450;52.150;4.466;2022-10-16T08:33:36;101307.38;;;15.16;100.00
66273;BME280;58450;52.150;4.466;2022-10-16T08:36:05;101324.06;;;15.27;100.00
66273;BME280;58450;52.150;4.466;2022-10-16T08:38:34;101324.69;;;15.09;100.00
66273;BME280;58450;52.150;4.466;2022-10-16T08:41:17;101334.94;;;15.47;100.00
66273;BME280;58450;52.150;4.466;2022-10-16T08:44:18;101336.44;;;15.90;100.00
66273;BME280;58450;52.150;4.466;2022-10-16T08:47:02;101343.72;;;15.83;100.00
66273;BME280;58450;52.150;4.466;2022-10-16T08:49:41;101342.28;;;15.87;100.00
66273;BME280;58450;52.150;4.466;2022-10-16T08:52:13;101367.31;;;15.75;100.00
66273;BME280;58450;52.150;4.466;2022-10-16T08:54:44;101375.25;;;15.90;100.00
66273;BME280;58450;52.150;4.466;2022-10-16T08:57:17;101367.75;;;15.92;100.00
66273;BME280;58450;52.150;4.466;2022-10-16T08:59:47;101368.78;;;15.85;100.00
66273;BME280;58450;52.150;4.466;2022-10-16T09:02:23;101360.63;;;15.85;100.00
66273;BME280;58450;52.150;4.466;2022-10-16T09:05:10;101365.63;;;16.08;100.00
66273;BME280;58450;52.150;4.466;2022-10-16T09:08:01;101382.06;;;16.40;100.00
66273;BME280;58450;52.150;4.466;2022-10-16T09:10:42;101385.56;;;16.67;100.00
66273;BME280;58450;52.150;4.466;2022-10-16T09:13:26;101388.75;;;16.51;100.00
66273;BME280;58450;52.150;4.466;2022-10-16T09:16:09;101399.38;;;16.59;100.00
66273;BME280;58450;52.150;4.466;2022-10-16T09:18:48;101380.31;;;17.18;100.00
66273;BME280;58450;52.150;4.466;2022-10-16T09:21:24;101383.41;;;17.54;100.00
66273;BME280;58450;52.150;4.466;2022-10-16T09:23:57;101374.03;;;17.50;100.00
66273;BME280;58450;52.150;4.466;2022-10-16T09:26:28;101390.38;;;17.50;100.00
66273;BME280;58450;52.150;4.466;2022-10-16T09:28:55;101374.78;;;16.93;100.00
66273;BME280;58450;52.150;4.466;2022-10-16T09:31:23;101379.09;;;17.14;100.00
66273;BME280;58450;52.150;4.466;2022-10-16T09:33:55;101373.75;;;17.33;100.00
66273;BME280;58450;52.150;4.466;2022-10-16T09:36:27;101383.69;;;17.46;100.00
66273;BME280;58450;52.150;4.466;2022-10-16T09:39:04;101382.88;;;17.70;100.00
66273;BME280;58450;52.150;4.466;2022-10-16T09:41:37;101383.59;;;17.59;100.00
66273;BME280;58450;52.150;4.466;2022-10-16T09:44:18;101379.69;;;17.16;100.00
66273;BME280;58450;52.150;4.466;2022-10-16T09:46:49;101411.53;;;17.09;100.00
66273;BME280;58450;52.150;4.466;2022-10-16T09:49:28;101414.91;;;16.18;100.00
66273;BME280;58450;52.150;4.466;2022-10-16T09:52:03;101393.59;;;16.08;100.00
66273;BME280;58450;52.150;4.466;2022-10-16T09:54:31;101402.16;;;16.32;100.00
66273;BME280;58450;52.150;4.466;2022-10-16T09:57:07;101407.19;;;16.15;100.00
66273;BME280;58450;52.150;4.466;2022-10-16T09:59:47;101396.66;;;16.52;100.00
66273;BME280;58450;52.150;4.466;2022-10-16T10:02:17;101398.00;;;16.89;100.00
66273;BME280;58450;52.150;4.466;2022-10-16T10:04:49;101394.81;;;17.69;100.00
66273;BME280;58450;52.150;4.466;2022-10-16T10:07:24;101400.66;;;17.98;100.00
66273;BME280;58450;52.150;4.466;2022-10-16T10:09:55;101391.22;;;17.76;100.00
66273;BME280;58450;52.150;4.466;2022-10-16T10:12:27;101403.69;;;17.58;100.00
66273;BME280;58450;52.150;4.466;2022-10-16T10:14:57;101404.81;;;18.08;100.00
66273;BME280;58450;52.150;4.466;2022-10-16T10:17:31;101405.78;;;18.13;100.00
66273;BME280;58450;52.150;4.466;2022-10-16T10:20:01;101419.06;;;18.28;100.00
66273;BME280;58450;52.150;4.466;2022-10-16T10:22:44;101431.16;;;18.33;100.00
66273;BME280;58450;52.150;4.466;2022-10-16T10:25:18;101418.53;;;18.75;100.00
66273;BME280;58450;52.150;4.466;2022-10-16T10:28:03;101436.28;;;19.03;100.00
66273;BME280;58450;52.150;4.466;2022-10-16T10:30:50;101431.28;;;19.00;100.00
66273;BME280;58450;52.150;4.466;2022-10-16T10:33:28;101442.25;;;19.12;100.00
66273;BME280;58450;52.150;4.466;2022-10-16T10:36:14;101439.44;;;18.00;100.00
66273;BME280;58450;52.150;4.466;2022-10-16T10:38:51;101443.84;;;18.20;100.00
66273;BME280;58450;52.150;4.466;2022-10-16T10:42:02;101433.84;;;18.14;100.00
66273;BME280;58450;52.150;4.466;2022-10-16T10:44:57;101444.34;;;18.36;100.00
66273;BME280;58450;52.150;4.466;2022-10-16T10:47:48;101446.91;;;17.80;100.00
66273;BME280;58450;52.150;4.466;2022-10-16T10:50:31;101457.34;;;17.83;100.00
66273;BME280;58450;52.150;4.466;2022-10-16T10:53:16;101456.47;;;17.57;100.00
66273;BME280;58450;52.150;4.466;2022-10-16T10:55:55;101454.88;;;17.42;100.00
66273;BME280;58450;52.150;4.466;2022-10-16T10:58:49;101451.88;;;17.57;100.00
66273;BME280;58450;52.150;4.466;2022-10-16T11:01:39;101449.88;;;17.39;100.00
66273;BME280;58450;52.150;4.466;2022-10-16T11:04:26;101468.09;;;17.32;100.00
66273;BME280;58450;52.150;4.466;2022-10-16T11:07:19;101473.69;;;16.98;100.00
66273;BME280;58450;52.150;4.466;2022-10-16T11:09:53;101471.50;;;17.27;100.00
66273;BME280;58450;52.150;4.466;2022-10-16T11:12:29;101472.03;;;16.91;100.00
66273;BME280;58450;52.150;4.466;2022-10-16T11:15:05;101486.00;;;17.15;100.00
66273;BME280;58450;52.150;4.466;2022-10-16T11:17:45;101493.97;;;16.89;100.00
66273;BME280;58450;52.150;4.466;2022-10-16T11:20:22;101489.66;;;16.75;100.00
66273;BME280;58450;52.150;4.466;2022-10-16T11:22:55;101490.09;;;16.58;100.00
66273;BME280;58450;52.150;4.466;2022-10-16T11:25:29;101480.66;;;16.67;100.00
66273;BME280;58450;52.150;4.466;2022-10-16T11:28:02;101480.25;;;16.64;100.00
66273;BME280;58450;52.150;4.466;2022-10-16T11:30:41;101486.72;;;16.63;100.00
66273;BME280;58450;52.150;4.466;2022-10-16T11:33:27;101495.50;;;16.51;100.00
66273;BME280;58450;52.150;4.466;2022-10-16T11:36:08;101484.44;;;16.60;100.00
66273;BME280;58450;52.150;4.466;2022-10-16T11:38:48;101480.88;;;16.73;100.00
66273;BME280;58450;52.150;4.466;2022-10-16T11:41:26;101496.28;;;16.79;100.00
66273;BME280;58450;52.150;4.466;2022-10-16T11:44:09;101492.72;;;16.92;100.00
66273;BME280;58450;52.150;4.466;2022-10-16T11:46:51;101493.53;;;17.12;100.00
66273;BME280;58450;52.150;4.466;2022-10-16T11:49:36;101504.66;;;17.04;100.00
66273;BME280;58450;52.150;4.466;2022-10-16T11:52:12;101504.81;;;17.16;100.00
66273;BME280;58450;52.150;4.466;2022-10-16T11:54:50;101510.47;;;17.15;100.00
66273;BME280;58450;52.150;4.466;2022-10-16T11:57:23;101534.88;;;17.28;100.00
66273;BME280;58450;52.150;4.466;2022-10-16T11:59:57;101498.59;;;17.48;100.00
66273;BME280;58450;52.150;4.466;2022-10-16T12:02:37;101508.53;;;17.67;100.00
66273;BME280;58450;52.150;4.466;2022-10-16T12:05:23;101505.13;;;17.79;100.00
66273;BME280;58450;52.150;4.466;2022-10-16T12:08:06;101501.97;;;17.82;100.00
66273;BME280;58450;52.150;4.466;2022-10-16T12:10:38;101502.69;;;17.96;100.00
66273;BME280;58450;52.150;4.466;2022-10-16T12:13:31;101520.84;;;17.70;100.00
66273;BME280;58450;52.150;4.466;2022-10-16T12:16:21;101509.94;;;17.77;100.00
66273;BME280;58450;52.150;4.466;2022-10-16T12:19:08;101507.69;;;17.99;100.00
66273;BME280;58450;52.150;4.466;2022-10-16T12:21:41;101509.69;;;18.17;100.00
66273;BME280;58450;52.150;4.466;2022-10-16T12:24:21;101511.97;;;18.20;100.00
66273;BME280;58450;52.150;4.466;2022-10-16T12:26:58;101513.63;;;18.21;100.00
66273;BME280;58450;52.150;4.466;2022-10-16T12:29:32;101520.31;;;18.25;100.00
66273;BME280;58450;52.150;4.466;2022-10-16T12:32:06;101525.84;;;18.63;100.00
66273;BME280;58450;52.150;4.466;2022-10-16T12:34:53;101528.94;;;18.92;100.00
66273;BME280;58450;52.150;4.466;2022-10-16T12:37:24;101512.81;;;19.27;100.00
66273;BME280;58450;52.150;4.466;2022-10-16T12:39:54;101524.63;;;19.70;97.51
66273;BME280;58450;52.150;4.466;2022-10-16T12:42:32;101529.09;;;19.34;100.00
66273;BME280;58450;52.150;4.466;2022-10-16T12:45:12;101527.44;;;19.14;98.56
66273;BME280;58450;52.150;4.466;2022-10-16T12:47:52;101516.09;;;18.55;100.00
66273;BME280;58450;52.150;4.466;2022-10-16T12:50:31;101518.13;;;18.59;100.00
66273;BME280;58450;52.150;4.466;2022-10-16T12:53:04;101504.00;;;18.44;100.00
66273;BME280;58450;52.150;4.466;2022-10-16T12:55:52;101511.31;;;18.25;100.00
66273;BME280;58450;52.150;4.466;2022-10-16T12:58:44;101515.88;;;18.31;100.00
66273;BME280;58450;52.150;4.466;2022-10-16T13:01:34;101522.31;;;18.37;100.00
66273;BME280;58450;52.150;4.466;2022-10-16T13:04:50;101533.78;;;18.45;100.00
66273;BME280;58450;52.150;4.466;2022-10-16T13:07:43;101534.16;;;18.24;100.00
66273;BME280;58450;52.150;4.466;2022-10-16T13:10:25;101534.75;;;18.00;100.00